Time;durP1;ratioP1;P1;durP2;ratioP2;P2;SDS_P1;SDS_P2;PMS_P1;PMS_P2;Temp;Humidity;BMP_temperature;BMP_pressure;BME280_temperature;BME280_humidity;BME280_pressure;Samples;Min_cycle;Max_cycle;Signal;HPM_P1;HPM_P2
2022/06/10 00:04:39;;;;;;;0.10;0.10;;;;;;;19.37;57.42;97259.53;10410319;28;20852;-21
2022/06/10 00:09:40;;;;;;;0.00;0.00;;;;;;;19.31;57.39;97262.03;10410914;28;20036;-22
2022/06/10 00:14:41;;;;;;;0.10;0.10;;;;;;;19.28;57.38;97272.19;10410747;28;20536;-22
2022/06/10 00:19:41;;;;;;;0.10;0.10;;;;;;;19.28;57.56;97274.72;10409933;28;20475;-22
2022/06/10 00:24:41;;;;;;;0.77;0.30;;;;;;;19.26;57.58;97267.09;10409182;28;20045;-25
2022/06/10 00:29:42;;;;;;;0.10;0.10;;;;;;;19.25;57.35;97267.94;10409602;28;20276;-23
2022/06/10 00:34:43;;;;;;;0.23;0.10;;;;;;;19.26;57.39;97263.72;10435248;28;20029;-25
2022/06/10 00:39:43;;;;;;;0.00;0.00;;;;;;;19.25;57.58;97269.63;10409598;28;20026;-22
2022/06/10 00:44:47;;;;;;;0.25;0.10;;;;;;;19.25;57.47;97270.47;10408815;28;20506;-22
2022/06/10 00:50:06;;;;;;;1.00;0.17;;;;;;;19.44;58.72;97266.34;10408992;28;20034;-22
2022/06/10 00:55:07;;;;;;;0.10;0.05;;;;;;;19.50;57.82;97264.69;10408932;28;20037;-22
2022/06/10 01:00:17;;;;;;;0.28;0.10;;;;;;;19.38;57.41;97272.25;10408212;28;20029;-22
2022/06/10 01:05:25;;;;;;;0.30;0.20;;;;;;;19.31;57.46;97269.66;10408364;28;20037;-23
2022/06/10 01:10:28;;;;;;;0.25;0.15;;;;;;;19.27;57.58;97260.34;10407779;28;20060;-22
2022/06/10 01:15:51;;;;;;;0.30;0.30;;;;;;;19.28;57.49;97267.09;10408131;28;20045;-23
2022/06/10 01:21:07;;;;;;;0.30;0.20;;;;;;;19.26;57.58;97268.81;10407627;28;20041;-22
2022/06/10 01:26:32;;;;;;;0.30;0.20;;;;;;;19.24;57.48;97271.31;10407517;28;20029;-22
2022/06/10 01:31:54;;;;;;;0.28;0.20;;;;;;;19.25;57.45;97267.09;10408272;28;20443;-22
2022/06/10 01:37:06;;;;;;;0.20;0.20;;;;;;;19.24;57.33;97260.34;10416544;28;20049;-22
2022/06/10 01:42:19;;;;;;;0.13;0.10;;;;;;;19.24;57.48;97265.41;10431254;28;20041;-23
2022/06/10 01:47:25;;;;;;;0.20;0.20;;;;;;;19.40;59.45;97268.03;10456697;28;20410;-22
2022/06/10 01:52:42;;;;;;;0.35;0.15;;;;;;;19.48;59.00;97260.44;10463214;28;20572;-23
2022/06/10 01:57:49;;;;;;;0.73;0.10;;;;;;;19.36;57.39;97268.00;10475423;28;20124;-22
2022/06/10 02:02:59;;;;;;;0.40;0.10;;;;;;;19.30;57.36;97270.50;10437141;28;20029;-22
2022/06/10 02:08:16;;;;;;;0.10;0.10;;;;;;;19.24;57.34;97271.31;10415496;28;20036;-22
2022/06/10 02:13:23;;;;;;;0.40;0.10;;;;;;;19.24;57.48;97270.50;10414994;28;20029;-22
2022/06/10 02:18:28;;;;;;;0.25;0.13;;;;;;;19.24;57.46;97278.09;10415120;28;20037;-22
2022/06/10 02:23:34;;;;;;;0.32;0.30;;;;;;;19.23;57.46;97281.44;10414307;28;20416;-22
2022/06/10 02:28:38;;;;;;;0.25;0.20;;;;;;;19.23;57.41;97286.53;10414517;28;20084;-22
2022/06/10 02:33:39;;;;;;;0.10;0.10;;;;;;;19.23;57.41;97287.41;10431362;28;20071;-22
2022/06/10 02:38:52;;;;;;;0.20;0.20;;;;;;;19.23;57.50;97294.16;10417582;28;20057;-23
2022/06/10 02:44:03;;;;;;;0.47;0.20;;;;;;;19.33;58.47;97290.84;10413426;28;20047;-22
2022/06/10 02:49:17;;;;;;;0.20;0.20;;;;;;;19.48;59.33;97293.44;10412759;28;20037;-23
2022/06/10 02:54:27;;;;;;;0.10;0.03;;;;;;;19.39;57.45;97290.84;10484726;28;20499;-23
2022/06/10 03:05:11;;;;;;;0.10;0.10;;;;;;;19.26;57.45;97299.25;10412254;28;20037;-22
2022/06/10 03:10:22;;;;;;;0.20;0.20;;;;;;;19.25;57.63;97302.66;10453656;28;20507;-24
2022/06/10 03:15:45;;;;;;;0.10;0.10;;;;;;;19.22;57.65;97292.44;10412619;28;20446;-24
2022/06/10 03:21:00;;;;;;;0.20;0.20;;;;;;;19.22;57.22;97302.59;10412382;28;20048;-22
2022/06/10 03:26:27;;;;;;;0.10;0.10;;;;;;;19.22;57.52;97312.75;10417319;28;20241;-22
2022/06/10 03:31:37;;;;;;;0.20;0.10;;;;;;;19.21;57.38;97306.00;10442995;28;20517;-23
2022/06/10 03:36:39;;;;;;;0.13;0.13;;;;;;;19.20;57.36;97315.31;10410941;28;20033;-23
2022/06/10 03:41:52;;;;;;;0.10;0.10;;;;;;;19.30;58.34;97318.75;10410877;28;20420;-22
2022/06/10 03:46:54;;;;;;;0.30;0.30;;;;;;;19.45;59.50;97316.28;10411384;28;20041;-23
2022/06/10 03:51:55;;;;;;;0.20;0.15;;;;;;;19.41;57.92;97324.75;10443825;28;20028;-24
2022/06/10 03:56:56;;;;;;;0.63;0.30;;;;;;;19.29;57.65;97325.53;10463550;28;20037;-22
2022/06/10 04:01:56;;;;;;;0.30;0.10;;;;;;;19.26;57.48;97329.72;10409532;28;20034;-22
2022/06/10 04:06:57;;;;;;;0.10;0.10;;;;;;;19.24;57.55;97331.41;10434968;28;20287;-23
2022/06/10 04:11:57;;;;;;;0.47;0.20;;;;;;;19.22;57.54;97333.06;10435802;28;20088;-22
2022/06/10 04:16:58;;;;;;;0.23;0.20;;;;;;;19.20;57.51;97339.84;10409562;28;20060;-23
2022/06/10 04:21:58;;;;;;;0.17;0.17;;;;;;;19.19;57.60;97344.03;10409783;28;20295;-23
2022/06/10 04:26:59;;;;;;;0.07;0.07;;;;;;;19.15;57.51;97338.91;10423769;28;20029;-22
2022/06/10 04:32:00;;;;;;;0.20;0.10;;;;;;;19.19;57.48;97343.22;10450398;28;20027;-26
2022/06/10 04:37:00;;;;;;;0.10;0.10;;;;;;;19.19;57.50;97348.28;10418734;28;20033;-22
2022/06/10 04:42:00;;;;;;;0.37;0.20;;;;;;;19.32;59.26;97345.84;10423408;28;20029;-24
2022/06/10 04:47:02;;;;;;;0.40;0.20;;;;;;;19.42;59.19;97351.84;10449617;28;20040;-24
2022/06/10 04:52:04;;;;;;;0.10;0.10;;;;;;;19.34;57.45;97340.78;10451566;28;20495;-22
2022/06/10 04:57:04;;;;;;;0.30;0.10;;;;;;;19.26;57.53;97347.50;10459573;28;20037;-22
2022/06/10 05:02:05;;;;;;;0.03;0.03;;;;;;;19.22;57.29;97341.56;10409113;28;20041;-22
2022/06/10 05:07:05;;;;;;;0.53;0.20;;;;;;;19.19;57.53;97350.81;10408302;28;20045;-21
2022/06/10 05:12:06;;;;;;;0.15;0.10;;;;;;;19.19;57.38;97348.28;10408161;28;20303;-23
2022/06/10 05:17:06;;;;;;;0.10;0.10;;;;;;;19.16;57.28;97340.63;10408162;28;20525;-23
2022/06/10 05:22:07;;;;;;;0.10;0.10;;;;;;;19.18;57.30;97346.56;10434808;28;20116;-23
2022/06/10 05:27:08;;;;;;;0.55;0.40;;;;;;;19.18;57.52;97346.56;10433263;28;20496;-23
2022/06/10 05:32:08;;;;;;;0.10;0.10;;;;;;;19.17;57.45;97344.88;10412950;28;20063;-23
2022/06/10 05:37:09;;;;;;;0.10;0.10;;;;;;;19.17;57.35;97348.25;10419752;28;20474;-22
2022/06/10 05:42:10;;;;;;;0.30;0.05;;;;;;;19.33;58.51;97351.78;10407633;28;20379;-22
2022/06/10 05:47:22;;;;;;;0.20;0.20;;;;;;;19.43;58.36;97358.63;10408292;28;20048;-22
2022/06/10 05:52:26;;;;;;;0.30;0.20;;;;;;;19.30;57.46;97357.69;10447930;28;20037;-27
2022/06/10 05:57:27;;;;;;;0.20;0.17;;;;;;;19.25;57.32;97358.50;10452326;28;20047;-23
2022/06/10 06:02:27;;;;;;;0.10;0.10;;;;;;;19.20;57.50;97360.13;10408074;28;20432;-22
2022/06/10 06:07:28;;;;;;;0.40;0.10;;;;;;;19.15;57.63;97346.53;10433257;28;20043;-22
2022/06/10 06:12:29;;;;;;;0.45;0.20;;;;;;;19.18;57.46;97351.63;10429259;28;20480;-22
2022/06/10 06:17:29;;;;;;;0.30;0.20;;;;;;;19.18;57.40;97357.53;10407490;28;20037;-22
2022/06/10 06:22:30;;;;;;;0.20;0.20;;;;;;;19.17;57.57;97357.56;10406889;28;20782;-22
2022/06/10 06:27:30;;;;;;;0.10;0.10;;;;;;;19.13;57.36;97361.75;10414163;28;20498;-22
2022/06/10 06:32:30;;;;;;;0.10;0.10;;;;;;;19.11;57.37;97350.75;10422959;28;20327;-22
2022/06/10 06:37:31;;;;;;;0.10;0.10;;;;;;;19.16;57.49;97358.41;10428030;28;20568;-22
2022/06/10 06:42:31;;;;;;;0.57;0.10;;;;;;;19.35;58.25;97357.72;10432874;28;20044;-23
2022/06/10 06:47:36;;;;;;;0.28;0.22;;;;;;;19.38;57.59;97357.72;10454912;28;20035;-21
2022/06/10 06:52:37;;;;;;;0.10;0.10;;;;;;;19.26;57.41;97358.47;10473644;28;20043;-22
2022/06/10 06:57:37;;;;;;;0.20;0.20;;;;;;;19.22;57.36;97363.53;10454999;28;20292;-28
2022/06/10 07:02:37;;;;;;;0.20;0.20;;;;;;;19.19;57.48;97359.28;10412226;28;20041;-23
2022/06/10 07:07:39;;;;;;;0.80;0.20;;;;;;;19.11;57.45;97337.19;10412291;28;20299;-23
2022/06/10 07:12:40;;;;;;;0.10;0.10;;;;;;;19.17;57.42;97347.41;10431870;28;20279;-22
2022/06/10 07:17:41;;;;;;;0.77;0.57;;;;;;;19.16;57.48;97356.69;10453884;28;20122;-23
2022/06/10 07:22:41;;;;;;;0.10;0.10;;;;;;;19.15;57.51;97355.00;10430736;28;20041;-23
2022/06/10 07:27:43;;;;;;;0.20;0.17;;;;;;;19.15;57.44;97356.66;10411802;28;20033;-23
2022/06/10 07:32:44;;;;;;;0.52;0.30;;;;;;;19.14;57.33;97344.81;10421541;28;20033;-22
2022/06/10 07:37:45;;;;;;;0.10;0.10;;;;;;;19.26;57.98;97340.72;10418541;28;20025;-22
2022/06/10 07:42:46;;;;;;;0.40;0.17;;;;;;;19.39;57.80;97337.44;10411279;28;20507;-21
2022/06/10 07:47:46;;;;;;;0.20;0.20;;;;;;;19.35;57.45;97329.78;10411681;28;20033;-26
2022/06/10 07:52:47;;;;;;;0.20;0.20;;;;;;;19.22;57.38;97331.41;10457465;28;20063;-23
2022/06/10 07:57:48;;;;;;;0.10;0.10;;;;;;;19.15;57.28;97323.66;10449625;28;20037;-22
2022/06/10 08:02:49;;;;;;;0.35;0.30;;;;;;;19.19;57.31;97331.34;10409979;28;20654;-22
2022/06/10 08:07:50;;;;;;;0.20;0.20;;;;;;;19.17;57.18;97332.19;10440658;28;20037;-22
2022/06/10 08:12:50;;;;;;;0.10;0.10;;;;;;;19.17;57.32;97330.47;10429237;28;20414;-23
2022/06/10 08:17:51;;;;;;;0.10;0.10;;;;;;;19.15;57.43;97331.28;10410090;28;20091;-22
2022/06/10 08:22:52;;;;;;;0.45;0.20;;;;;;;19.17;57.35;97334.72;10409716;28;20072;-22
2022/06/10 08:27:54;;;;;;;0.23;0.13;;;;;;;19.17;57.38;97339.78;10409847;28;20116;-23
2022/06/10 08:32:54;;;;;;;0.10;0.10;;;;;;;19.16;57.78;97348.25;10421331;28;20106;-23
2022/06/10 08:37:55;;;;;;;0.20;0.20;;;;;;;19.31;58.34;97335.66;10421653;28;20504;-22
2022/06/10 08:43:05;;;;;;;0.15;0.10;;;;;;;19.42;57.93;97336.59;10408600;28;20389;-22
2022/06/10 08:48:08;;;;;;;0.47;0.20;;;;;;;19.31;57.26;97344.16;10408006;28;20029;-22
2022/06/10 08:53:44;;;;;;;0.55;0.17;;;;;;;19.17;57.27;97327.09;10461458;28;20291;-22
2022/06/10 08:58:53;;;;;;;0.40;0.17;;;;;;;19.21;57.47;97331.38;10432619;28;20040;-22
2022/06/10 09:03:57;;;;;;;0.13;0.13;;;;;;;19.18;57.62;97332.16;10408619;28;20407;-22
2022/06/10 09:09:03;;;;;;;0.32;0.20;;;;;;;19.19;57.39;97338.13;10409009;28;20486;-22
2022/06/10 09:14:03;;;;;;;0.75;0.20;;;;;;;19.19;57.31;97340.69;10407990;28;20099;-22
2022/06/10 09:19:43;;;;;;;0.30;0.30;;;;;;;19.16;57.46;97322.88;10407860;28;20392;-22
2022/06/10 09:24:55;;;;;;;0.43;0.30;;;;;;;19.16;57.56;97333.03;10408400;28;20037;-22
2022/06/10 09:29:57;;;;;;;0.30;0.20;;;;;;;19.16;57.54;97322.88;10408450;28;20029;-22
2022/06/10 09:35:06;;;;;;;0.20;0.20;;;;;;;19.23;58.09;97333.09;10428494;28;20079;-22
2022/06/10 09:40:50;;;;;;;0.40;0.30;;;;;;;19.38;58.46;97324.72;10407787;28;20037;-22
2022/06/10 09:45:56;;;;;;;0.10;0.10;;;;;;;19.35;57.35;97324.69;10407380;28;20480;-23
2022/06/10 09:51:21;;;;;;;0.15;0.15;;;;;;;19.24;57.24;97326.34;10407805;28;20025;-24
2022/06/10 09:56:30;;;;;;;0.08;0.08;;;;;;;19.20;57.42;97324.59;10407315;28;20064;-24
2022/06/10 10:01:56;;;;;;;0.13;0.13;;;;;;;19.17;57.73;97319.47;10414928;28;20514;-22
2022/06/10 10:07:24;;;;;;;0.45;0.40;;;;;;;19.17;57.45;97324.56;10413437;28;20554;-23
2022/06/10 10:12:34;;;;;;;0.45;0.20;;;;;;;19.16;57.46;97322.88;10414560;28;20036;-23
2022/06/10 10:17:56;;;;;;;0.30;0.30;;;;;;;19.16;57.59;97321.16;10414593;28;20033;-23
2022/06/10 10:23:10;;;;;;;0.10;0.10;;;;;;;19.16;57.57;97317.78;10414405;28;20076;-22
2022/06/10 10:28:38;;;;;;;0.10;0.10;;;;;;;19.17;57.49;97314.41;10414823;28;20053;-23
2022/06/10 10:33:39;;;;;;;0.40;0.10;;;;;;;19.18;58.53;97311.03;10431853;28;20075;-22
2022/06/10 10:38:43;;;;;;;0.10;0.10;;;;;;;19.36;58.46;97316.25;10414745;28;20042;-22
2022/06/10 10:43:45;;;;;;;0.20;0.20;;;;;;;19.38;57.25;97309.47;10441625;28;20395;-23
2022/06/10 10:48:47;;;;;;;0.10;0.10;;;;;;;19.28;57.31;97313.66;10455127;28;20106;-22
2022/06/10 10:53:55;;;;;;;0.10;0.10;;;;;;;19.22;57.28;97312.75;10480698;28;20119;-22
2022/06/10 10:58:57;;;;;;;0.32;0.20;;;;;;;19.20;57.54;97311.91;10463403;28;20040;-23
2022/06/10 11:03:57;;;;;;;0.22;0.20;;;;;;;19.12;57.59;97291.53;10453815;28;20028;-23
2022/06/10 11:09:23;;;;;;;0.20;0.20;;;;;;;19.17;57.47;97306.78;10414292;28;20052;-23
2022/06/10 11:14:38;;;;;;;0.10;0.10;;;;;;;19.15;57.42;97300.84;10411948;28;20037;-21
2022/06/10 11:19:57;;;;;;;0.20;0.20;;;;;;;19.15;57.50;97300.84;10417826;28;20086;-23
2022/06/10 11:25:00;;;;;;;0.20;0.10;;;;;;;19.07;57.41;97292.31;10453807;28;20033;-22
2022/06/10 11:30:10;;;;;;;0.52;0.30;;;;;;;19.13;57.39;97297.44;10413706;28;20033;-24
2022/06/10 11:35:20;;;;;;;0.20;0.20;;;;;;;19.26;58.18;97300.09;10439736;28;20072;-23
2022/06/10 11:40:43;;;;;;;0.25;0.25;;;;;;;19.40;58.53;97292.56;10411907;28;20068;-22
2022/06/10 11:46:09;;;;;;;0.10;0.10;;;;;;;19.31;57.28;97288.28;10452801;28;20064;-22
2022/06/10 11:51:13;;;;;;;0.20;0.20;;;;;;;19.23;57.41;97295.00;10455397;28;20036;-22
2022/06/10 12:01:51;;;;;;;0.50;0.10;;;;;;;19.18;57.50;97283.09;10451976;28;20037;-24
2022/06/10 12:07:00;;;;;;;0.13;0.13;;;;;;;19.17;57.46;97283.94;10435863;28;20037;-23
2022/06/10 12:12:12;;;;;;;0.30;0.20;;;;;;;19.15;57.43;97285.59;10410265;28;20112;-22
2022/06/10 12:17:28;;;;;;;0.00;0.00;;;;;;;19.14;57.50;97269.53;10410178;28;20431;-24
2022/06/10 12:22:29;;;;;;;0.93;0.65;;;;;;;19.14;57.21;97263.59;10409893;28;20038;-21
2022/06/10 12:27:43;;;;;;;0.10;0.10;;;;;;;19.12;57.36;97260.22;10411920;28;20500;-21
2022/06/10 12:33:01;;;;;;;1.30;0.25;;;;;;;19.15;58.63;97250.94;10421976;28;20487;-21
2022/06/10 12:38:14;;;;;;;0.20;0.20;;;;;;;19.33;59.01;97245.97;10424107;28;20042;-22
2022/06/10 12:43:20;;;;;;;0.20;0.20;;;;;;;19.37;57.13;97241.75;10450672;28;20041;-22
2022/06/10 12:48:25;;;;;;;0.10;0.10;;;;;;;19.23;57.35;97243.38;10448577;28;20033;-21
2022/06/10 12:53:52;;;;;;;0.10;0.10;;;;;;;19.19;57.48;97241.69;10468717;28;20140;-21
2022/06/10 12:58:58;;;;;;;0.28;0.22;;;;;;;19.17;57.59;97238.25;10460994;28;20041;-23
2022/06/10 13:04:35;;;;;;;0.95;0.10;;;;;;;19.15;57.56;97229.75;10451796;28;20514;-20
2022/06/10 13:09:36;;;;;;;0.20;0.10;;;;;;;19.15;57.52;97229.75;10409854;28;20087;-23
2022/06/10 13:14:42;;;;;;;0.20;0.20;;;;;;;19.13;57.50;97222.16;10409061;28;20037;-21
2022/06/10 13:20:06;;;;;;;0.08;0.08;;;;;;;19.13;57.52;97221.28;10422515;28;20036;-22
2022/06/10 13:25:07;;;;;;;0.10;0.10;;;;;;;19.13;57.58;97221.28;10451515;28;20052;-21
2022/06/10 13:30:14;;;;;;;0.20;0.20;;;;;;;19.12;57.44;97219.59;10410837;28;20034;-21
2022/06/10 13:35:43;;;;;;;0.30;0.20;;;;;;;19.30;58.92;97214.66;10444900;28;20029;-21
2022/06/10 13:40:50;;;;;;;0.10;0.10;;;;;;;19.36;57.75;97214.69;10452688;28;20049;-21
2022/06/10 13:45:51;;;;;;;0.10;0.10;;;;;;;19.25;57.49;97217.16;10418078;28;20484;-21
2022/06/10 13:56:11;;;;;;;0.10;0.10;;;;;;;19.15;57.53;97194.22;10423104;28;20048;-22
2022/06/10 14:01:18;;;;;;;0.38;0.15;;;;;;;19.14;57.52;97195.06;10457182;28;20377;-21
2022/06/10 14:06:27;;;;;;;0.03;0.03;;;;;;;19.12;57.62;97194.22;10445849;28;20060;-21
2022/06/10 14:11:37;;;;;;;0.20;0.10;;;;;;;19.12;57.57;97195.09;10424434;28;20191;-22
2022/06/10 14:16:38;;;;;;;0.30;0.20;;;;;;;19.12;57.61;97200.16;10456634;28;20028;-23
2022/06/10 14:21:39;;;;;;;0.10;0.10;;;;;;;19.13;57.47;97185.75;10443060;28;20029;-21
2022/06/10 14:26:40;;;;;;;0.57;0.20;;;;;;;19.12;57.65;97187.47;10425142;28;20499;-21
2022/06/10 14:31:45;;;;;;;0.47;0.17;;;;;;;19.24;58.19;97184.19;10455726;28;20064;-21
2022/06/10 14:37:04;;;;;;;0.17;0.17;;;;;;;19.38;59.46;97182.53;10427168;28;20050;-22
2022/06/10 14:42:24;;;;;;;0.10;0.10;;;;;;;19.33;57.64;97184.22;10413970;28;20129;-21
2022/06/10 14:47:27;;;;;;;0.10;0.10;;;;;;;19.24;57.65;97181.63;10412369;28;20057;-21
2022/06/10 14:52:39;;;;;;;0.20;0.17;;;;;;;19.20;57.60;97177.38;10454367;28;20043;-22
2022/06/10 14:57:46;;;;;;;0.10;0.10;;;;;;;19.16;57.50;97173.94;10454441;28;20041;-21
2022/06/10 15:02:47;;;;;;;0.30;0.20;;;;;;;19.14;57.65;97169.69;10412718;28;20506;-22
2022/06/10 15:07:48;;;;;;;0.20;0.20;;;;;;;19.14;57.59;97170.56;10413309;28;20112;-21
2022/06/10 15:12:49;;;;;;;0.30;0.13;;;;;;;19.13;57.63;97165.44;10412828;28;20129;-21
2022/06/10 15:17:50;;;;;;;0.35;0.10;;;;;;;19.13;57.58;97160.38;10412661;28;20043;-22
2022/06/10 15:22:53;;;;;;;0.40;0.20;;;;;;;19.14;57.64;97162.06;10438738;28;20041;-20
2022/06/10 15:27:55;;;;;;;0.10;0.10;;;;;;;19.13;57.46;97155.31;10431002;28;20542;-21
2022/06/10 15:32:55;;;;;;;0.00;0.00;;;;;;;19.31;58.44;97160.47;10422959;28;20036;-21
2022/06/10 15:43:19;;;;;;;0.10;0.10;;;;;;;19.29;57.68;97157.09;10434963;28;20556;-21
2022/06/10 15:48:20;;;;;;;0.22;0.10;;;;;;;19.23;57.60;97159.59;10452191;28;20031;-22
2022/06/10 15:53:26;;;;;;;0.30;0.10;;;;;;;19.20;57.77;97157.06;10466622;28;20608;-22
2022/06/10 15:58:30;;;;;;;0.10;0.10;;;;;;;19.19;57.67;97157.91;10465240;28;20527;-21
2022/06/10 16:03:32;;;;;;;0.10;0.10;;;;;;;19.18;57.77;97158.72;10445716;28;20100;-21
2022/06/10 16:08:32;;;;;;;0.20;0.20;;;;;;;19.17;57.85;97157.03;10410538;28;20033;-22
2022/06/10 16:13:39;;;;;;;0.10;0.10;;;;;;;19.16;57.63;97155.34;10410108;28;20054;-21
2022/06/10 16:18:44;;;;;;;0.10;0.10;;;;;;;19.17;57.69;97159.56;10410658;28;20037;-22
2022/06/10 16:23:47;;;;;;;0.10;0.10;;;;;;;19.15;57.55;97158.69;10409968;28;20029;-22
2022/06/10 16:28:51;;;;;;;0.10;0.10;;;;;;;19.23;58.75;97162.13;10438260;28;20065;-22
2022/06/10 16:33:52;;;;;;;0.25;0.22;;;;;;;19.39;60.38;97163.91;10450802;28;20041;-23
2022/06/10 16:38:53;;;;;;;0.10;0.10;;;;;;;19.40;57.94;97153.75;10410209;28;20288;-21
2022/06/10 16:43:59;;;;;;;0.10;0.03;;;;;;;19.27;57.86;97168.94;10409285;28;20041;-20
2022/06/10 16:49:00;;;;;;;0.03;0.00;;;;;;;19.22;57.68;97160.44;10409079;28;20295;-21
2022/06/10 16:54:01;;;;;;;0.43;0.20;;;;;;;19.20;57.75;97157.94;10475670;28;20498;-21
2022/06/10 16:59:02;;;;;;;0.27;0.27;;;;;;;19.20;57.86;97157.06;10428283;28;20041;-21
2022/06/10 17:04:02;;;;;;;0.20;0.20;;;;;;;19.19;57.87;97160.44;10408447;28;20886;-21
2022/06/10 17:09:03;;;;;;;0.28;0.22;;;;;;;19.07;57.67;97142.56;10408230;28;20037;-21
2022/06/10 17:14:06;;;;;;;0.20;0.17;;;;;;;19.15;57.73;97158.69;10408334;28;20041;-21
2022/06/10 17:19:07;;;;;;;0.10;0.10;;;;;;;19.15;57.59;97149.41;10408479;28;20109;-21
2022/06/10 17:24:08;;;;;;;0.10;0.10;;;;;;;19.16;57.63;97160.41;10408276;28;20045;-21
2022/06/10 17:29:23;;;;;;;0.00;0.00;;;;;;;19.27;58.83;97158.78;10407903;28;20563;-22
2022/06/10 17:34:24;;;;;;;0.20;0.17;;;;;;;19.43;60.49;97151.22;10432018;28;20044;-23
2022/06/10 17:39:24;;;;;;;0.10;0.10;;;;;;;19.37;58.26;97160.50;10413687;28;20060;-23
2022/06/10 17:44:31;;;;;;;0.17;0.13;;;;;;;19.26;57.68;97164.72;10407615;28;20037;-21
2022/06/10 17:49:37;;;;;;;0.10;0.10;;;;;;;19.22;57.90;97163.00;10408422;28;20032;-21
2022/06/10 17:54:40;;;;;;;0.10;0.10;;;;;;;19.18;57.88;97162.09;10484328;28;20043;-22
2022/06/10 17:59:41;;;;;;;0.15;0.10;;;;;;;19.17;57.79;97162.09;10415679;28;20049;-22
2022/06/10 18:04:41;;;;;;;0.10;0.10;;;;;;;19.16;58.10;97161.25;10410395;28;20033;-21
2022/06/10 18:09:42;;;;;;;0.10;0.10;;;;;;;19.16;57.73;97160.41;10448942;28;20029;-21
2022/06/10 18:14:54;;;;;;;0.10;0.10;;;;;;;19.14;57.61;97165.47;10410639;28;20058;-20
2022/06/10 18:19:55;;;;;;;0.13;0.10;;;;;;;19.14;57.71;97162.06;10410552;28;20030;-21
2022/06/10 18:24:55;;;;;;;0.10;0.10;;;;;;;19.13;57.66;97160.38;10414957;28;20108;-22
2022/06/10 18:29:57;;;;;;;0.10;0.10;;;;;;;19.34;59.07;97170.66;10451727;28;20352;-22
2022/06/10 18:35:10;;;;;;;0.00;0.00;;;;;;;19.44;58.08;97165.59;10437016;28;20428;-21
2022/06/10 18:40:44;;;;;;;0.10;0.10;;;;;;;19.30;57.86;97163.88;10414743;28;20037;-21
2022/06/10 18:45:44;;;;;;;0.45;0.20;;;;;;;19.22;57.83;97170.59;10413075;28;20049;-21
2022/06/10 18:50:45;;;;;;;0.53;0.30;;;;;;;19.19;57.81;97180.75;10425939;28;20029;-21
2022/06/10 18:55:45;;;;;;;0.10;0.10;;;;;;;19.12;57.82;97171.38;10486704;28;20111;-23
2022/06/10 19:00:49;;;;;;;0.17;0.17;;;;;;;19.15;57.75;97187.47;10414073;28;20128;-21
2022/06/10 19:05:51;;;;;;;0.10;0.10;;;;;;;19.15;57.62;97187.47;10412789;28;20408;-21
2022/06/10 19:10:51;;;;;;;0.00;0.00;;;;;;;19.14;57.41;97192.53;10413420;28;20037;-21
2022/06/10 19:15:56;;;;;;;0.10;0.10;;;;;;;19.10;57.64;97186.59;10412735;28;20041;-23
2022/06/10 19:20:56;;;;;;;0.20;0.13;;;;;;;19.13;57.38;97201.00;10429934;28;20147;-22
2022/06/10 19:26:01;;;;;;;0.10;0.10;;;;;;;19.25;58.87;97201.09;10447517;28;20163;-22
2022/06/10 19:31:06;;;;;;;0.52;0.10;;;;;;;19.42;59.19;97199.47;10412158;28;20599;-22
2022/06/10 19:36:31;;;;;;;0.10;0.10;;;;;;;19.38;58.06;97207.91;10448332;28;20411;-24
2022/06/10 19:41:31;;;;;;;0.00;0.00;;;;;;;19.25;57.86;97207.00;10442498;28;20029;-23
2022/06/10 19:46:32;;;;;;;0.20;0.20;;;;;;;19.20;57.83;97210.38;10411729;28;20435;-23
2022/06/10 19:51:35;;;;;;;0.10;0.10;;;;;;;19.18;57.90;97220.47;10437727;28;20050;-22
2022/06/10 19:56:36;;;;;;;0.20;0.20;;;;;;;19.16;57.72;97228.94;10470285;28;20045;-21
2022/06/10 20:01:41;;;;;;;0.10;0.10;;;;;;;19.16;57.79;97236.56;10411311;28;20068;-22
2022/06/10 20:06:41;;;;;;;0.08;0.08;;;;;;;19.07;57.64;97226.31;10410733;28;20033;-22
2022/06/10 20:11:42;;;;;;;0.05;0.05;;;;;;;19.14;57.66;97246.69;10409977;28;20029;-21
2022/06/10 20:16:42;;;;;;;0.27;0.20;;;;;;;19.14;57.67;97238.22;10410541;28;20176;-22
2022/06/10 20:21:44;;;;;;;0.10;0.10;;;;;;;19.07;57.67;97233.94;10435614;28;20029;-21
2022/06/10 20:26:45;;;;;;;0.00;0.00;;;;;;;19.33;58.81;97250.22;10438225;28;20446;-22
2022/06/10 20:31:52;;;;;;;0.10;0.10;;;;;;;19.46;59.31;97251.97;10412051;28;20034;-21
2022/06/10 20:36:52;;;;;;;0.10;0.10;;;;;;;19.33;58.27;97250.22;10420195;28;20439;-21
2022/06/10 20:41:53;;;;;;;0.03;0.03;;;;;;;19.24;57.78;97245.09;10421597;28;20196;-22
2022/06/10 20:47:03;;;;;;;0.13;0.13;;;;;;;19.21;57.89;97250.13;10450415;28;20039;-22
2022/06/10 20:52:13;;;;;;;0.10;0.10;;;;;;;19.19;57.89;97249.28;10451777;28;20040;-22
2022/06/10 20:57:15;;;;;;;0.10;0.10;;;;;;;19.16;57.73;97246.72;10458317;28;20136;-21
2022/06/10 21:02:27;;;;;;;0.10;0.10;;;;;;;19.16;57.71;97249.25;10408807;28;20037;-22
2022/06/10 21:07:33;;;;;;;0.10;0.10;;;;;;;19.14;57.94;97248.38;10431081;28;20040;-23
2022/06/10 21:12:39;;;;;;;0.30;0.20;;;;;;;19.15;57.68;97255.13;10430229;28;20033;-22
2022/06/10 21:17:44;;;;;;;0.52;0.20;;;;;;;19.12;57.76;97239.91;10408767;28;20404;-21
2022/06/10 21:22:46;;;;;;;0.52;0.20;;;;;;;19.16;59.20;97252.63;10408227;28;20533;-22
2022/06/10 21:27:47;;;;;;;0.10;0.10;;;;;;;19.39;59.66;97250.22;10408537;28;20033;-23
2022/06/10 21:32:49;;;;;;;0.00;0.00;;;;;;;19.39;58.28;97247.69;10418675;28;20426;-22
2022/06/10 21:37:49;;;;;;;0.03;0.03;;;;;;;19.26;57.91;97251.84;10425462;28;20296;-24
2022/06/10 21:48:16;;;;;;;0.43;0.10;;;;;;;19.19;57.79;97251.84;10407896;28;20480;-21
2022/06/10 21:53:27;;;;;;;0.20;0.20;;;;;;;19.18;57.87;97255.19;10462723;28;20380;-21
2022/06/10 21:58:30;;;;;;;0.00;0.00;;;;;;;19.16;57.84;97265.31;10444001;28;20487;-20
2022/06/10 22:03:36;;;;;;;0.40;0.10;;;;;;;19.15;57.81;97266.16;10415517;28;20499;-23
2022/06/10 22:08:37;;;;;;;0.10;0.10;;;;;;;19.15;57.73;97270.38;10415414;28;20036;-24
2022/06/10 22:13:37;;;;;;;0.10;0.10;;;;;;;19.14;57.74;97264.47;10415280;28;20518;-22
2022/06/10 22:18:38;;;;;;;0.47;0.30;;;;;;;19.15;57.98;97260.22;10415202;28;20033;-21
2022/06/10 22:23:38;;;;;;;0.00;0.00;;;;;;;19.31;58.87;97262.03;10415114;28;20610;-24
2022/06/10 22:28:38;;;;;;;0.13;0.13;;;;;;;19.45;59.87;97271.44;10442042;28;20290;-22
2022/06/10 22:33:43;;;;;;;0.10;0.10;;;;;;;19.35;57.72;97268.84;10454258;28;20079;-22
2022/06/10 22:38:47;;;;;;;0.00;0.00;;;;;;;19.25;57.81;97269.63;10414952;28;20114;-21
2022/06/10 22:43:47;;;;;;;0.10;0.10;;;;;;;19.19;57.86;97277.22;10413977;28;20034;-22
2022/06/10 22:48:48;;;;;;;0.20;0.20;;;;;;;19.18;57.85;97266.16;10414316;28;20041;-22
2022/06/10 22:53:49;;;;;;;0.00;0.00;;;;;;;19.17;57.83;97268.72;10416617;28;20038;-21
2022/06/10 22:58:51;;;;;;;0.10;0.10;;;;;;;19.16;57.80;97267.03;10413225;28;20060;-21
2022/06/10 23:06:22;;;;;;;0.10;0.10;;;;;;;19.14;57.88;97268.69;10413260;28;20522;-22
2022/06/10 23:14:44;;;;;;;0.00;0.00;;;;;;;19.12;57.72;97273.75;10416820;28;20400;-21
2022/06/10 23:19:53;;;;;;;0.10;0.10;;;;;;;19.15;58.37;97275.44;10412673;28;20040;-22
2022/06/10 23:24:54;;;;;;;0.10;0.10;;;;;;;19.36;59.31;97271.41;10412408;28;20091;-22
2022/06/10 23:29:54;;;;;;;0.15;0.10;;;;;;;19.43;57.92;97269.72;10412175;28;20088;-22
2022/06/10 23:34:58;;;;;;;0.10;0.10;;;;;;;19.29;57.55;97269.66;10427186;28;20507;-23
2022/06/10 23:39:59;;;;;;;0.10;0.10;;;;;;;19.22;57.82;97274.69;10411898;28;20072;-21
2022/06/10 23:44:59;;;;;;;0.20;0.10;;;;;;;19.19;57.78;97272.13;10411211;28;20431;-23
